Time;durP1;ratioP1;P1;durP2;ratioP2;P2;SDS_P1;SDS_P2;PMS_P1;PMS_P2;Temp;Humidity;BMP_temperature;BMP_pressure;BME280_temperature;BME280_humidity;BME280_pressure;Samples;Min_cycle;Max_cycle;Signal;HPM_P1;HPM_P2
2023/06/09 00:01:37;;;;;;;4.93;4.10;;;14.40;99.90;;;;;;5112079;28;20210;-76
2023/06/09 00:04:08;;;;;;;6.80;4.20;;;14.50;99.90;;;;;;5112963;28;20206;-80
2023/06/09 00:06:37;;;;;;;5.10;4.10;;;14.40;99.90;;;;;;5113305;28;20210;-78
2023/06/09 00:09:07;;;;;;;6.43;4.00;;;14.40;99.90;;;;;;5113150;28;20202;-78
2023/06/09 00:11:35;;;;;;;5.17;3.93;;;14.30;99.90;;;;;;5111880;28;20274;-78
2023/06/09 00:14:03;;;;;;;4.90;3.90;;;14.30;99.90;;;;;;5112763;28;20225;-78
2023/06/09 00:16:32;;;;;;;4.93;3.80;;;14.20;99.90;;;;;;5112974;28;20259;-79
2023/06/09 00:19:01;;;;;;;4.33;3.77;;;14.30;99.90;;;;;;5111349;28;20209;-78
2023/06/09 00:21:30;;;;;;;5.00;4.13;;;14.20;99.90;;;;;;5112482;28;20210;-79
2023/06/09 00:23:58;;;;;;;5.37;4.17;;;14.20;99.90;;;;;;5112493;28;20259;-80
2023/06/09 00:26:28;;;;;;;4.53;4.07;;;14.20;99.90;;;;;;5111236;28;20292;-80
2023/06/09 00:28:56;;;;;;;4.17;3.77;;;14.20;99.90;;;;;;5092196;28;20206;-79
2023/06/09 00:31:24;;;;;;;5.13;4.63;;;14.20;99.90;;;;;;5092406;28;20207;-77
2023/06/09 00:33:52;;;;;;;7.97;4.50;;;14.20;99.90;;;;;;5091869;28;20222;-78
2023/06/09 00:36:21;;;;;;;5.87;4.07;;;14.10;99.90;;;;;;5103419;28;20206;-79
2023/06/09 00:38:49;;;;;;;4.33;3.93;;;14.20;99.90;;;;;;5113376;28;20263;-78
2023/06/09 00:41:17;;;;;;;5.27;4.73;;;14.20;99.90;;;;;;5119304;28;20206;-79
2023/06/09 00:43:48;;;;;;;5.70;4.60;;;14.20;99.90;;;;;;5117712;28;20214;-78
2023/06/09 00:46:16;;;;;;;5.20;4.57;;;14.20;99.90;;;;;;5111508;28;20229;-79
2023/06/09 00:48:45;;;;;;;6.23;4.37;;;14.20;99.90;;;;;;5112094;28;20249;-79
2023/06/09 00:51:13;;;;;;;5.93;5.10;;;14.10;99.90;;;;;;5112406;28;20292;-80
2023/06/09 00:53:42;;;;;;;5.63;5.00;;;14.10;99.90;;;;;;5110740;28;20252;-78
2023/06/09 00:56:11;;;;;;;6.43;5.37;;;14.00;99.90;;;;;;5111995;28;20321;-79
2023/06/09 00:58:40;;;;;;;6.50;5.90;;;14.10;99.90;;;;;;5112513;28;20212;-80
2023/06/09 01:01:09;;;;;;;6.60;5.70;;;14.00;99.90;;;;;;5112085;28;20210;-80
2023/06/09 01:03:38;;;;;;;7.07;6.37;;;14.00;99.90;;;;;;5110995;28;20241;-79
2023/06/09 01:06:12;;;;;;;6.60;5.90;;;14.00;99.90;;;;;;5112030;28;20672;-79
2023/06/09 01:08:51;;;;;;;10.23;6.57;;;14.00;99.90;;;;;;5112357;28;20198;-79
2023/06/09 01:11:27;;;;;;;7.07;6.37;;;14.00;99.90;;;;;;5110214;28;20228;-80
2023/06/09 01:14:02;;;;;;;7.47;6.20;;;14.00;99.90;;;;;;5111034;28;20372;-79
2023/06/09 01:16:37;;;;;;;7.00;6.30;;;13.90;99.90;;;;;;5112048;28;20205;-77
2023/06/09 01:19:15;;;;;;;7.00;6.23;;;13.90;99.90;;;;;;5112032;28;20230;-79
2023/06/09 01:21:45;;;;;;;8.53;6.33;;;13.90;99.90;;;;;;5111807;28;20252;-76
2023/06/09 01:24:28;;;;;;;7.80;6.97;;;13.90;99.90;;;;;;5111166;28;20198;-80
2023/06/09 01:27:01;;;;;;;7.80;7.00;;;13.90;99.90;;;;;;5111957;28;20210;-79
2023/06/09 01:29:31;;;;;;;7.80;7.00;;;13.90;99.90;;;;;;5111802;28;20250;-79
2023/06/09 01:32:00;;;;;;;7.50;6.80;;;13.80;99.90;;;;;;5110601;28;20244;-77
2023/06/09 01:34:28;;;;;;;7.53;6.77;;;13.80;99.90;;;;;;5112437;28;20316;-79
2023/06/09 01:36:57;;;;;;;7.90;7.20;;;13.90;99.90;;;;;;5116333;28;20210;-78
2023/06/09 01:39:26;;;;;;;7.97;7.17;;;13.80;99.90;;;;;;5116014;28;20234;-79
2023/06/09 01:41:55;;;;;;;7.70;7.00;;;13.80;99.90;;;;;;5114371;28;20210;-80
2023/06/09 01:44:24;;;;;;;9.00;8.10;;;13.80;99.90;;;;;;5115827;28;20202;-79
2023/06/09 01:46:53;;;;;;;9.10;8.23;;;13.80;99.90;;;;;;5115846;28;20542;-78
2023/06/09 01:49:28;;;;;;;8.73;7.83;;;13.80;99.90;;;;;;5115824;28;20210;-78
2023/06/09 01:52:02;;;;;;;7.67;6.80;;;13.80;99.90;;;;;;5114598;28;20237;-78
2023/06/09 01:54:36;;;;;;;8.67;7.10;;;13.80;99.90;;;;;;5115258;28;20286;-77
2023/06/09 01:57:07;;;;;;;13.73;7.60;;;13.70;99.90;;;;;;5115728;28;20612;-77
2023/06/09 01:59:45;;;;;;;7.67;6.97;;;13.80;99.90;;;;;;5097978;28;20263;-78
2023/06/09 02:02:13;;;;;;;10.20;7.60;;;13.70;99.90;;;;;;5094961;28;20263;-76
2023/06/09 02:04:46;;;;;;;8.53;7.73;;;13.80;99.90;;;;;;5095105;28;20207;-77
2023/06/09 02:07:19;;;;;;;8.70;7.80;;;13.80;99.90;;;;;;5099735;28;20201;-80
2023/06/09 02:09:47;;;;;;;9.30;7.70;;;13.80;99.90;;;;;;5115361;28;20221;-78
2023/06/09 02:12:16;;;;;;;9.43;7.70;;;13.70;99.90;;;;;;5115007;28;20252;-79
2023/06/09 02:14:45;;;;;;;8.30;7.50;;;13.80;99.90;;;;;;5114996;28;20767;-76
2023/06/09 02:17:13;;;;;;;8.47;7.57;;;13.70;99.90;;;;;;5113747;28;20543;-79
2023/06/09 02:19:41;;;;;;;9.47;8.37;;;13.70;99.90;;;;;;5115275;28;20320;-80
2023/06/09 02:22:09;;;;;;;8.87;7.90;;;13.70;99.90;;;;;;5114930;28;20249;-79
2023/06/09 02:24:38;;;;;;;8.47;7.67;;;13.70;99.90;;;;;;5113822;28;20675;-78
2023/06/09 02:27:06;;;;;;;8.57;7.67;;;13.70;99.90;;;;;;5115093;28;20206;-77
2023/06/09 02:29:35;;;;;;;11.40;9.00;;;13.70;99.90;;;;;;5115077;28;20251;-79
2023/06/09 02:32:05;;;;;;;10.23;9.00;;;13.70;99.90;;;;;;5114782;28;20218;-79
2023/06/09 02:34:34;;;;;;;9.37;8.40;;;13.70;99.90;;;;;;5095564;28;20260;-79
2023/06/09 02:37:02;;;;;;;10.87;9.27;;;13.60;99.90;;;;;;5094424;28;20631;-77
2023/06/09 02:39:30;;;;;;;11.63;8.90;;;13.60;99.90;;;;;;5094432;28;20428;-78
2023/06/09 02:41:58;;;;;;;12.07;9.67;;;13.60;99.90;;;;;;5099940;28;20206;-79
2023/06/09 02:44:28;;;;;;;10.97;9.57;;;13.60;99.90;;;;;;5114598;28;20214;-76
2023/06/09 02:46:56;;;;;;;9.70;8.70;;;13.60;99.90;;;;;;5113319;28;20210;-79
2023/06/09 02:49:26;;;;;;;10.40;9.40;;;13.60;99.90;;;;;;5114359;28;20668;-77
2023/06/09 02:51:54;;;;;;;9.63;8.60;;;13.60;99.90;;;;;;5112887;28;20247;-78
2023/06/09 02:54:22;;;;;;;11.30;8.93;;;13.60;99.90;;;;;;5114409;28;20213;-79
2023/06/09 02:56:51;;;;;;;9.83;8.37;;;13.50;99.90;;;;;;5114077;28;20223;-78
2023/06/09 02:59:19;;;;;;;11.30;8.53;;;13.50;99.90;;;;;;5113313;28;20202;-77
2023/06/09 03:01:48;;;;;;;9.77;8.77;;;13.50;99.90;;;;;;5113879;28;20206;-79
2023/06/09 03:04:17;;;;;;;10.30;8.33;;;13.40;99.90;;;;;;5114037;28;20672;-79
2023/06/09 03:06:50;;;;;;;9.67;8.20;;;13.50;99.90;;;;;;5114026;28;20241;-77
2023/06/09 03:09:18;;;;;;;9.77;7.90;;;13.40;99.90;;;;;;5113913;28;20209;-79
2023/06/09 03:11:47;;;;;;;9.70;7.80;;;13.40;99.90;;;;;;5113911;28;20237;-77
2023/06/09 03:14:15;;;;;;;10.33;8.23;;;13.30;99.90;;;;;;5114148;28;20210;-76
2023/06/09 03:16:43;;;;;;;8.20;7.40;;;13.30;99.90;;;;;;5113140;28;20333;-77
2023/06/09 03:19:11;;;;;;;8.63;7.50;;;13.30;99.90;;;;;;5119805;28;20582;-78
2023/06/09 03:21:39;;;;;;;8.70;7.80;;;13.20;99.90;;;;;;5122614;28;20274;-79
2023/06/09 03:24:09;;;;;;;8.47;7.30;;;13.20;99.90;;;;;;5116807;28;20232;-78
2023/06/09 03:26:37;;;;;;;8.40;7.60;;;13.20;99.90;;;;;;5100382;28;20203;-77
2023/06/09 03:29:05;;;;;;;9.10;7.40;;;13.20;99.90;;;;;;5097878;28;20222;-76
2023/06/09 03:31:33;;;;;;;8.80;7.67;;;13.20;99.90;;;;;;5094483;28;20242;-78
2023/06/09 03:34:01;;;;;;;9.03;7.57;;;13.20;99.90;;;;;;5093101;28;20210;-77
2023/06/09 03:36:29;;;;;;;8.80;7.40;;;13.30;99.90;;;;;;5109311;28;20225;-77
2023/06/09 03:38:58;;;;;;;8.30;7.50;;;13.30;99.90;;;;;;5113585;28;20236;-77
2023/06/09 03:41:27;;;;;;;8.77;7.10;;;13.30;99.90;;;;;;5113508;28;20206;-78
2023/06/09 03:43:55;;;;;;;7.27;6.47;;;13.30;99.90;;;;;;5111221;28;20721;-78
2023/06/09 03:46:23;;;;;;;7.73;6.67;;;13.30;99.90;;;;;;5113183;28;20266;-78
2023/06/09 03:48:52;;;;;;;9.10;7.40;;;13.30;99.90;;;;;;5113435;28;20206;-78
2023/06/09 03:51:21;;;;;;;8.70;6.70;;;13.30;99.90;;;;;;5113390;28;20210;-76
2023/06/09 03:53:49;;;;;;;8.30;6.60;;;13.40;99.90;;;;;;5111995;28;20250;-78
2023/06/09 03:56:18;;;;;;;7.17;6.30;;;13.40;99.90;;;;;;5113561;28;20222;-79
2023/06/09 03:58:48;;;;;;;8.73;7.27;;;13.40;99.90;;;;;;5112974;28;20210;-77
2023/06/09 04:01:17;;;;;;;9.00;7.00;;;13.50;99.90;;;;;;5111898;28;20709;-78
2023/06/09 04:03:45;;;;;;;8.07;6.93;;;13.50;99.90;;;;;;5112988;28;20202;-76
2023/06/09 04:06:14;;;;;;;7.10;6.40;;;13.60;99.90;;;;;;5113240;28;20226;-77
2023/06/09 04:08:44;;;;;;;8.17;7.30;;;13.60;99.90;;;;;;5112914;28;20270;-78
2023/06/09 04:11:12;;;;;;;8.10;7.07;;;13.60;99.90;;;;;;5111799;28;20250;-77
2023/06/09 04:13:41;;;;;;;8.67;6.80;;;13.70;99.90;;;;;;5112684;28;20216;-79
2023/06/09 04:16:10;;;;;;;8.33;7.30;;;13.70;99.90;;;;;;5112885;28;20222;-79
2023/06/09 04:18:38;;;;;;;8.90;6.50;;;13.70;99.90;;;;;;5111577;28;20214;-78
2023/06/09 04:21:07;;;;;;;10.23;6.57;;;13.80;99.90;;;;;;5113117;28;20251;-78
2023/06/09 04:23:38;;;;;;;7.13;6.43;;;13.80;99.90;;;;;;5112745;28;20210;-78
2023/06/09 04:26:08;;;;;;;7.50;6.27;;;13.80;99.90;;;;;;5111611;28;20648;-78
2023/06/09 04:28:37;;;;;;;8.40;6.83;;;13.80;99.90;;;;;;5112965;28;20214;-77
2023/06/09 04:31:06;;;;;;;8.30;6.83;;;13.80;99.90;;;;;;5115478;28;20210;-76
2023/06/09 04:33:36;;;;;;;8.43;6.83;;;13.90;99.90;;;;;;5111620;27;20221;-77
2023/06/09 04:36:05;;;;;;;9.40;7.20;;;13.90;99.90;;;;;;5112714;28;20582;-77
2023/06/09 04:38:34;;;;;;;7.73;6.93;;;13.90;99.90;;;;;;5112856;28;20259;-77
2023/06/09 04:41:03;;;;;;;8.73;6.50;;;13.90;99.90;;;;;;5112909;28;20561;-77
2023/06/09 04:43:32;;;;;;;7.80;7.03;;;14.00;99.90;;;;;;5111629;28;20202;-78
2023/06/09 04:46:01;;;;;;;8.03;7.23;;;14.00;99.90;;;;;;5115582;28;20206;-79
2023/06/09 04:48:30;;;;;;;8.30;6.27;;;14.10;99.90;;;;;;5116561;28;20213;-78
2023/06/09 04:51:01;;;;;;;8.43;6.80;;;14.20;99.90;;;;;;5112966;28;20206;-76
2023/06/09 04:53:29;;;;;;;8.50;7.30;;;14.20;99.90;;;;;;5111226;28;20597;-76
2023/06/09 04:55:58;;;;;;;8.80;7.13;;;14.30;99.90;;;;;;5112500;28;20249;-76
2023/06/09 04:58:28;;;;;;;8.97;7.90;;;14.40;99.90;;;;;;5112022;28;20724;-76
2023/06/09 05:00:57;;;;;;;8.93;7.50;;;14.40;99.90;;;;;;5112429;28;20216;-76
2023/06/09 05:03:25;;;;;;;9.73;7.87;;;14.50;99.90;;;;;;5110595;28;20213;-78
2023/06/09 05:05:53;;;;;;;8.93;7.50;;;14.60;99.90;;;;;;5112547;28;20210;-76
2023/06/09 05:08:22;;;;;;;8.93;7.53;;;14.70;99.90;;;;;;5113019;28;20562;-75
2023/06/09 05:10:52;;;;;;;7.33;6.63;;;14.70;99.90;;;;;;5113869;28;20249;-78
2023/06/09 05:13:20;;;;;;;8.90;7.80;;;14.80;99.90;;;;;;5115993;28;20390;-77
2023/06/09 05:15:48;;;;;;;8.67;7.77;;;14.80;99.90;;;;;;5116527;28;20210;-78
2023/06/09 05:18:19;;;;;;;9.20;8.20;;;14.90;99.90;;;;;;5116091;28;20651;-76
2023/06/09 05:20:48;;;;;;;10.60;8.00;;;15.00;99.90;;;;;;5115108;28;20597;-76
2023/06/09 05:23:16;;;;;;;10.27;8.10;;;15.10;99.90;;;;;;5115851;28;20720;-77
2023/06/09 05:25:46;;;;;;;8.80;7.37;;;15.20;99.90;;;;;;5116046;28;20664;-77
2023/06/09 05:28:14;;;;;;;13.10;8.60;;;15.30;99.90;;;;;;5114953;28;20209;-76
2023/06/09 05:30:43;;;;;;;9.40;8.03;;;15.50;99.90;;;;;;5116292;28;20619;-76
2023/06/09 05:33:11;;;;;;;9.13;8.23;;;15.60;99.90;;;;;;5115955;28;20210;-77
2023/06/09 05:35:39;;;;;;;9.93;8.97;;;15.60;99.90;;;;;;5116091;28;20223;-78
2023/06/09 05:38:07;;;;;;;10.40;9.43;;;15.80;99.90;;;;;;5115088;28;20268;-77
2023/06/09 05:40:35;;;;;;;9.60;8.60;;;15.90;99.90;;;;;;5116061;28;20206;-79
2023/06/09 05:43:05;;;;;;;8.80;8.00;;;16.10;99.90;;;;;;5114709;28;20206;-78
2023/06/09 05:45:33;;;;;;;10.10;8.50;;;16.20;99.90;;;;;;5115392;28;20225;-77
2023/06/09 05:48:03;;;;;;;9.53;8.17;;;16.20;99.90;;;;;;5115741;28;20698;-78
2023/06/09 05:50:31;;;;;;;9.33;8.43;;;16.20;99.90;;;;;;5115704;28;20259;-78
2023/06/09 05:52:59;;;;;;;8.20;7.40;;;16.30;99.90;;;;;;5115355;28;20206;-76
2023/06/09 05:55:27;;;;;;;8.77;7.97;;;16.50;99.90;;;;;;5114837;28;20313;-78
2023/06/09 05:57:56;;;;;;;9.67;8.10;;;16.80;99.90;;;;;;5115435;28;20218;-77
2023/06/09 06:00:29;;;;;;;8.77;7.97;;;16.90;99.90;;;;;;5115480;28;20210;-79
2023/06/09 06:02:57;;;;;;;8.20;7.40;;;17.10;99.90;;;;;;5114156;28;20244;-78
2023/06/09 06:05:26;;;;;;;7.90;7.10;;;17.50;99.90;;;;;;5115691;28;20206;-77
2023/06/09 06:07:54;;;;;;;7.50;6.70;;;17.90;99.90;;;;;;5115310;27;20607;-78
2023/06/09 06:10:23;;;;;;;6.73;6.10;;;18.90;99.90;;;;;;5114241;28;20224;-76
2023/06/09 06:12:51;;;;;;;6.33;5.77;;;20.30;99.90;;;;;;5115078;28;20279;-78
2023/06/09 06:15:19;;;;;;;7.17;4.93;;;21.60;99.90;;;;;;5115478;28;20289;-78
2023/06/09 06:17:49;;;;;;;5.83;5.07;;;23.10;99.90;;;;;;5114530;28;20222;-78
2023/06/09 06:20:17;;;;;;;5.80;5.20;;;24.60;99.90;;;;;;5115277;28;20202;-76
2023/06/09 06:22:46;;;;;;;5.13;4.63;;;25.40;98.90;;;;;;5115149;28;20258;-77
2023/06/09 06:25:14;;;;;;;6.93;4.77;;;24.70;99.50;;;;;;5115303;28;20631;-76
2023/06/09 06:27:42;;;;;;;7.07;4.57;;;25.00;98.00;;;;;;5112374;28;20214;-78
2023/06/09 06:30:15;;;;;;;5.03;4.53;;;25.30;95.90;;;;;;5095064;28;20195;-77
2023/06/09 06:32:51;;;;;;;4.97;4.45;;;25.80;97.50;;;;;;5094488;28;20210;-78
2023/06/09 06:35:24;;;;;;;4.97;4.00;;;26.70;91.80;;;;;;5094965;28;20282;-77
2023/06/09 06:37:53;;;;;;;3.60;3.30;;;26.70;91.50;;;;;;5101535;28;20230;-78
2023/06/09 06:40:22;;;;;;;5.75;3.55;;;26.40;91.40;;;;;;5114708;28;20282;-78
2023/06/09 06:42:51;;;;;;;4.40;3.55;;;26.10;91.30;;;;;;5114686;28;20610;-77
2023/06/09 06:45:19;;;;;;;4.43;3.90;;;27.00;89.90;;;;;;5113987;28;20209;-76
2023/06/09 06:47:51;;;;;;;4.10;3.70;;;27.20;85.40;;;;;;5115414;28;20203;-77
2023/06/09 06:50:20;;;;;;;4.07;3.63;;;26.70;83.90;;;;;;5115052;28;20190;-77
2023/06/09 06:52:52;;;;;;;3.60;3.30;;;27.00;84.50;;;;;;5113566;28;20191;-78
2023/06/09 06:55:20;;;;;;;5.15;3.10;;;27.80;81.00;;;;;;5103277;28;20704;-76
2023/06/09 06:57:49;;;;;;;4.32;3.92;;;28.50;82.50;;;;;;5094372;28;20227;-78
2023/06/09 07:00:18;;;;;;;4.40;4.00;;;28.10;75.30;;;;;;5094366;28;20210;-76
2023/06/09 07:02:47;;;;;;;5.20;3.60;;;28.50;74.30;;;;;;5093863;28;20207;-79
2023/06/09 07:05:17;;;;;;;3.60;3.30;;;28.50;75.50;;;;;;5108105;28;20627;-76
2023/06/09 07:07:46;;;;;;;4.22;3.38;;;28.80;70.50;;;;;;5114246;28;20227;-77
2023/06/09 07:10:15;;;;;;;5.18;3.78;;;28.90;74.30;;;;;;5114698;28;20218;-77
2023/06/09 07:12:43;;;;;;;4.43;3.70;;;28.40;70.50;;;;;;5115876;28;20207;-77
2023/06/09 07:15:12;;;;;;;4.32;4.03;;;28.80;71.70;;;;;;5096964;28;20214;-77
2023/06/09 07:17:40;;;;;;;4.18;3.85;;;28.00;69.40;;;;;;5094322;28;20226;-76
2023/06/09 07:20:10;;;;;;;4.35;4.03;;;27.60;71.50;;;;;;5094434;28;20294;-79
2023/06/09 07:22:41;;;;;;;5.55;3.88;;;27.30;74.70;;;;;;5094554;28;20249;-77
2023/06/09 07:25:10;;;;;;;4.68;4.13;;;27.70;74.90;;;;;;5106967;28;20214;-78
2023/06/09 07:27:38;;;;;;;4.65;4.25;;;28.00;73.10;;;;;;5116724;28;20206;-79
2023/06/09 07:30:07;;;;;;;4.10;3.80;;;28.50;68.90;;;;;;5116039;28;20206;-77
2023/06/09 07:32:36;;;;;;;4.53;4.03;;;28.10;69.40;;;;;;5113552;27;20688;-77
2023/06/09 07:35:06;;;;;;;4.80;4.40;;;27.60;72.70;;;;;;5115656;27;20733;-80
2023/06/09 07:37:36;;;;;;;7.07;4.00;;;28.20;71.90;;;;;;5115390;28;20249;-77
2023/06/09 07:40:08;;;;;;;4.55;4.15;;;28.90;70.10;;;;;;5115463;27;20231;-77
2023/06/09 07:42:48;;;;;;;5.00;4.38;;;28.60;68.10;;;;;;5115134;28;20210;-77
2023/06/09 07:45:17;;;;;;;4.50;4.10;;;29.50;65.30;;;;;;5115781;28;20207;-78
2023/06/09 07:47:45;;;;;;;4.40;4.00;;;29.50;64.60;;;;;;5113484;27;20652;-77
2023/06/09 07:50:14;;;;;;;4.03;3.63;;;29.40;69.20;;;;;;5115459;28;20206;-78
2023/06/09 07:52:42;;;;;;;4.32;3.92;;;30.20;67.10;;;;;;5114508;28;20209;-76
2023/06/09 07:55:11;;;;;;;3.33;3.03;;;30.50;62.10;;;;;;5114001;28;20765;-77
2023/06/09 07:57:43;;;;;;;4.13;3.72;;;30.80;64.00;;;;;;5113643;28;20214;-76
2023/06/09 08:00:13;;;;;;;4.28;3.72;;;30.60;62.00;;;;;;5114541;28;20293;-78
2023/06/09 08:02:42;;;;;;;3.97;3.60;;;30.90;58.10;;;;;;5114589;28;20205;-75
2023/06/09 08:05:11;;;;;;;4.57;4.18;;;30.50;61.70;;;;;;5115385;28;20206;-78
2023/06/09 08:07:41;;;;;;;4.57;4.18;;;30.70;56.30;;;;;;5095299;28;20260;-76
2023/06/09 08:10:10;;;;;;;5.20;4.70;;;30.50;57.20;;;;;;5108645;28;20210;-80
2023/06/09 08:12:39;;;;;;;4.47;3.88;;;29.30;57.00;;;;;;5115658;28;20285;-80
2023/06/09 08:15:08;;;;;;;3.90;3.50;;;29.30;59.00;;;;;;5095158;28;20206;-76
2023/06/09 08:17:40;;;;;;;4.22;3.72;;;29.30;61.40;;;;;;5097210;28;20218;-78
2023/06/09 08:20:09;;;;;;;4.22;3.83;;;30.10;58.80;;;;;;5094357;28;20203;-76
2023/06/09 08:22:38;;;;;;;4.10;3.70;;;30.10;59.20;;;;;;5107825;28;20590;-78
2023/06/09 08:25:07;;;;;;;4.03;3.50;;;29.80;56.40;;;;;;5114124;28;20741;-78
2023/06/09 08:27:37;;;;;;;4.28;3.60;;;30.40;58.20;;;;;;5115644;28;20222;-78
2023/06/09 08:30:07;;;;;;;4.78;3.80;;;30.40;55.50;;;;;;5116089;28;20206;-79
2023/06/09 08:32:36;;;;;;;4.30;3.90;;;30.20;55.40;;;;;;5118098;28;20204;-76
2023/06/09 08:35:07;;;;;;;4.78;3.58;;;29.50;57.30;;;;;;5116668;28;20238;-77
2023/06/09 08:37:36;;;;;;;3.72;3.35;;;30.00;58.80;;;;;;5116645;28;20206;-77
2023/06/09 08:40:08;;;;;;;5.57;3.72;;;30.10;57.40;;;;;;5111407;28;20234;-79
2023/06/09 08:42:39;;;;;;;4.25;3.63;;;30.90;55.60;;;;;;5105106;28;20210;-78
2023/06/09 08:45:08;;;;;;;4.40;3.50;;;31.10;52.80;;;;;;5109046;28;20213;-77
2023/06/09 08:47:38;;;;;;;3.83;3.47;;;32.30;51.90;;;;;;5106734;28;20211;-77
2023/06/09 08:50:08;;;;;;;4.63;3.22;;;32.50;52.00;;;;;;5103828;28;20217;-77
2023/06/09 08:52:38;;;;;;;3.40;3.15;;;32.90;48.00;;;;;;5104337;28;20278;-79
2023/06/09 08:55:09;;;;;;;6.07;3.65;;;32.70;49.00;;;;;;5116231;28;20239;-76
2023/06/09 08:57:39;;;;;;;4.50;3.33;;;32.60;48.60;;;;;;5117889;28;20263;-77
2023/06/09 09:00:11;;;;;;;5.63;3.65;;;31.80;51.60;;;;;;5118442;28;20221;-77
2023/06/09 09:02:39;;;;;;;4.63;3.38;;;30.80;49.70;;;;;;5116601;28;20202;-75
2023/06/09 09:05:08;;;;;;;4.10;3.70;;;30.70;51.10;;;;;;5094026;28;20211;-76
2023/06/09 09:07:36;;;;;;;3.72;3.30;;;31.30;53.40;;;;;;5096294;28;20202;-76
2023/06/09 09:10:05;;;;;;;3.30;3.00;;;31.70;47.70;;;;;;5112932;28;20672;-77
2023/06/09 09:12:48;;;;;;;5.38;3.60;;;32.30;49.10;;;;;;5112025;28;20215;-77
2023/06/09 09:15:16;;;;;;;4.10;3.45;;;32.10;48.30;;;;;;5113439;28;20212;-76
2023/06/09 09:17:46;;;;;;;4.43;3.10;;;33.20;46.50;;;;;;5112817;28;20202;-76
2023/06/09 09:20:15;;;;;;;3.25;2.97;;;33.30;46.20;;;;;;5112569;28;20333;-78
2023/06/09 09:22:47;;;;;;;3.58;3.00;;;33.70;46.20;;;;;;5112922;28;20271;-77
2023/06/09 09:25:23;;;;;;;3.72;3.38;;;33.50;45.30;;;;;;5112793;28;20275;-78
2023/06/09 09:28:04;;;;;;;3.58;3.10;;;32.10;44.00;;;;;;5113161;28;20259;-78
2023/06/09 09:30:43;;;;;;;4.63;3.10;;;32.30;46.30;;;;;;5111332;28;20408;-78
2023/06/09 09:33:13;;;;;;;4.95;2.80;;;32.40;45.40;;;;;;5112390;28;20210;-75
2023/06/09 09:35:45;;;;;;;3.00;2.70;;;32.30;43.40;;;;;;5112427;28;20298;-78
2023/06/09 09:38:18;;;;;;;3.08;2.72;;;33.10;41.90;;;;;;5111108;28;20206;-77
2023/06/09 09:40:48;;;;;;;2.65;2.45;;;32.40;40.40;;;;;;5112062;28;20679;-77
2023/06/09 09:43:18;;;;;;;3.13;2.40;;;32.50;40.40;;;;;;5111686;28;20207;-77
2023/06/09 09:45:48;;;;;;;2.70;2.50;;;32.80;40.40;;;;;;5111184;28;20214;-77
2023/06/09 09:48:18;;;;;;;3.05;2.78;;;32.40;42.00;;;;;;5112179;28;20271;-78
2023/06/09 09:50:48;;;;;;;3.00;2.70;;;32.60;39.60;;;;;;5111583;28;20224;-76
2023/06/09 09:53:16;;;;;;;3.17;2.70;;;32.50;39.40;;;;;;5111866;28;20191;-77
2023/06/09 09:55:46;;;;;;;4.32;2.80;;;32.50;41.00;;;;;;5112128;28;20317;-79
2023/06/09 09:58:15;;;;;;;3.38;2.90;;;32.50;38.10;;;;;;5117264;28;20230;-77
2023/06/09 10:00:46;;;;;;;3.75;2.60;;;31.70;39.70;;;;;;5117494;28;20218;-76
2023/06/09 10:03:16;;;;;;;3.42;2.90;;;32.20;43.50;;;;;;5114392;28;20213;-76
2023/06/09 10:05:46;;;;;;;3.10;2.63;;;31.50;41.90;;;;;;5115776;28;20210;-78
2023/06/09 10:08:21;;;;;;;3.95;3.00;;;32.20;39.00;;;;;;5115924;27;20202;-75
2023/06/09 10:10:52;;;;;;;5.05;3.17;;;31.80;38.20;;;;;;5114280;28;20236;-75
2023/06/09 10:13:22;;;;;;;4.57;2.70;;;32.50;38.10;;;;;;5114917;28;20206;-77
2023/06/09 10:15:52;;;;;;;3.00;2.80;;;32.10;36.70;;;;;;5115910;28;20206;-78
2023/06/09 10:18:21;;;;;;;5.13;2.72;;;31.90;35.20;;;;;;5114551;28;20240;-77
2023/06/09 10:20:52;;;;;;;3.15;2.80;;;32.30;34.80;;;;;;5095282;28;20238;-76
2023/06/09 10:23:21;;;;;;;4.32;3.10;;;32.30;36.40;;;;;;5095088;28;20272;-78
2023/06/09 10:25:51;;;;;;;4.05;2.88;;;32.10;39.70;;;;;;5094863;28;20207;-78
2023/06/09 10:28:21;;;;;;;2.97;2.60;;;32.60;35.10;;;;;;5094565;28;20214;-76
2023/06/09 10:30:51;;;;;;;2.63;2.40;;;31.90;35.00;;;;;;5115391;28;20206;-76
2023/06/09 10:33:25;;;;;;;4.13;3.10;;;32.40;38.10;;;;;;5115976;28;20202;-78
2023/06/09 10:35:58;;;;;;;5.13;2.70;;;32.00;38.20;;;;;;5114685;28;20232;-76
2023/06/09 10:38:30;;;;;;;3.25;2.72;;;31.80;36.40;;;;;;5113849;28;20228;-76
2023/06/09 10:41:08;;;;;;;5.38;2.88;;;31.30;35.50;;;;;;5115065;28;20283;-77
2023/06/09 10:44:03;;;;;;;3.38;2.55;;;31.70;35.20;;;;;;5115012;28;20641;-77
2023/06/09 10:46:43;;;;;;;3.10;2.80;;;32.10;37.40;;;;;;5095204;28;20644;-77
2023/06/09 10:49:36;;;;;;;4.47;3.08;;;31.60;35.00;;;;;;5094534;28;20664;-77
2023/06/09 10:52:06;;;;;;;3.85;3.35;;;31.60;37.90;;;;;;5088221;28;20203;-76
2023/06/09 10:54:35;;;;;;;4.43;2.50;;;32.20;36.00;;;;;;5105260;28;20286;-78
2023/06/09 10:57:06;;;;;;;3.33;3.00;;;32.50;32.90;;;;;;5115211;28;20237;-76
2023/06/09 11:03:27;;;;;;;5.05;2.80;;;32.60;33.60;;;;;;5113596;28;20202;-79
2023/06/09 11:06:00;;;;;;;3.10;2.90;;;32.50;37.50;;;;;;5114570;28;20220;-77
2023/06/09 11:09:02;;;;;;;6.28;3.22;;;33.30;38.70;;;;;;5114053;28;20194;-76
2023/06/09 11:11:48;;;;;;;3.72;3.30;;;32.40;40.70;;;;;;5115055;28;20221;-76
2023/06/09 11:14:51;;;;;;;4.53;3.28;;;30.90;42.50;;;;;;5113248;28;20570;-76
2023/06/09 11:17:22;;;;;;;3.47;3.17;;;30.20;43.80;;;;;;5114550;28;20232;-76
2023/06/09 11:19:52;;;;;;;3.30;3.00;;;28.70;46.40;;;;;;5113959;28;20768;-76
2023/06/09 11:22:22;;;;;;;6.47;3.05;;;28.50;48.00;;;;;;5112953;28;20202;-76
2023/06/09 11:24:51;;;;;;;4.63;3.13;;;28.70;47.80;;;;;;5114849;28;20656;-76
2023/06/09 11:27:20;;;;;;;3.50;3.20;;;29.30;45.00;;;;;;5114037;28;20214;-78
2023/06/09 11:30:06;;;;;;;4.70;3.30;;;29.60;44.20;;;;;;5114162;28;20202;-78
2023/06/09 11:32:44;;;;;;;4.53;2.95;;;29.90;43.80;;;;;;5112718;27;20214;-77
2023/06/09 11:35:40;;;;;;;5.05;3.40;;;29.90;42.30;;;;;;5114289;28;20201;-76
2023/06/09 11:38:09;;;;;;;6.72;3.20;;;29.20;42.80;;;;;;5113948;28;20236;-75
2023/06/09 11:40:39;;;;;;;4.65;3.53;;;29.40;45.10;;;;;;5113565;28;20278;-77
2023/06/09 11:43:09;;;;;;;5.80;3.42;;;29.00;40.80;;;;;;5112516;28;20246;-77
2023/06/09 11:45:38;;;;;;;4.07;3.42;;;29.40;39.00;;;;;;5113824;28;20207;-78
2023/06/09 11:48:07;;;;;;;5.97;3.10;;;29.10;37.00;;;;;;5113622;28;20214;-77
2023/06/09 11:50:42;;;;;;;5.53;3.33;;;28.70;38.70;;;;;;5113863;28;20206;-78
2023/06/09 11:53:12;;;;;;;3.85;3.13;;;28.90;43.30;;;;;;5112390;28;20566;-77
2023/06/09 11:55:40;;;;;;;5.57;3.40;;;28.70;43.70;;;;;;5113664;28;20275;-76
2023/06/09 11:58:12;;;;;;;4.90;3.43;;;28.40;45.80;;;;;;5113908;28;20202;-78
2023/06/09 12:00:42;;;;;;;4.67;3.47;;;28.70;44.30;;;;;;5107477;28;20591;-76
2023/06/09 12:03:11;;;;;;;3.63;3.33;;;27.90;43.60;;;;;;5099906;28;20579;-77
2023/06/09 12:05:48;;;;;;;6.90;3.50;;;27.10;46.70;;;;;;5116815;28;20217;-78
2023/06/09 12:08:17;;;;;;;4.43;3.43;;;27.30;44.30;;;;;;5114916;28;20217;-78
2023/06/09 12:10:46;;;;;;;4.30;3.03;;;27.00;44.30;;;;;;5120648;27;20236;-78
2023/06/09 12:13:16;;;;;;;3.73;3.13;;;27.40;43.60;;;;;;5112854;28;20206;-77
2023/06/09 12:15:46;;;;;;;5.80;3.50;;;26.70;44.40;;;;;;5113800;28;20226;-78
2023/06/09 12:18:14;;;;;;;5.17;3.80;;;26.60;42.50;;;;;;5112367;28;20581;-77
2023/06/09 12:20:47;;;;;;;4.97;3.50;;;26.40;43.30;;;;;;5113019;28;20233;-77
2023/06/09 12:23:16;;;;;;;4.07;3.40;;;26.70;43.80;;;;;;5112901;28;20200;-75
2023/06/09 12:25:46;;;;;;;3.93;3.50;;;27.10;44.70;;;;;;5112084;28;20601;-76
2023/06/09 12:28:17;;;;;;;4.23;3.53;;;27.20;45.50;;;;;;5112835;28;20206;-76
2023/06/09 12:30:47;;;;;;;6.27;3.20;;;27.60;45.40;;;;;;5114820;28;20382;-78
2023/06/09 12:33:17;;;;;;;4.00;3.20;;;27.40;43.60;;;;;;5115610;28;20216;-78
2023/06/09 12:35:48;;;;;;;3.73;3.30;;;27.30;42.80;;;;;;5114190;28;20273;-78
2023/06/09 12:38:18;;;;;;;3.33;3.03;;;27.70;44.10;;;;;;5115250;28;20293;-78
2023/06/09 12:40:50;;;;;;;5.03;3.00;;;27.90;40.60;;;;;;5116195;28;20325;-77
2023/06/09 12:43:19;;;;;;;7.70;3.30;;;28.20;41.70;;;;;;5114733;28;20206;-75
2023/06/09 12:45:48;;;;;;;6.43;3.40;;;27.70;37.50;;;;;;5115780;28;20656;-77
2023/06/09 12:48:17;;;;;;;5.63;3.53;;;28.10;41.10;;;;;;5114347;28;20214;-80
2023/06/09 12:50:47;;;;;;;4.70;3.43;;;28.20;42.70;;;;;;5113138;28;20255;-79
2023/06/09 12:53:15;;;;;;;5.90;3.37;;;28.20;43.10;;;;;;5124659;28;20210;-78
2023/06/09 12:55:44;;;;;;;4.93;3.23;;;28.50;40.50;;;;;;5121797;28;20252;-77
2023/06/09 12:58:12;;;;;;;5.13;3.30;;;28.80;42.80;;;;;;5126280;28;20227;-77
2023/06/09 13:00:40;;;;;;;3.73;2.97;;;28.60;40.00;;;;;;5122791;28;20253;-79
2023/06/09 13:03:10;;;;;;;4.77;3.50;;;28.80;42.00;;;;;;5112806;28;20210;-78
2023/06/09 13:05:38;;;;;;;4.43;3.20;;;28.50;40.60;;;;;;5112940;28;20210;-78